RYR9H EGCC-EICK
Flight info
| Callsign | RYR9H |
|---|---|
| Flight time | 0h 54m |
| Altitude | 32000 |
| Route | ASMIM L975 WAL L10 PENIL M144 BAGSO DCT TISMO TISMO1G |
| Aircraft | B738/M-SDE2E3FGHIRWXY/LB1 |
Departure
| Time | 2026-05-03 21:43 |
|---|---|
| Airport | Manchester Airport (EGCC) |
Arrival
| Time | 2026-05-03 22:37 |
|---|---|
| Airport | Cork International Airport (EICK) |
| Time | Latitude | Longitude | Altitude | Speed | Heading |
|---|---|---|---|---|---|
| 2026-05-03 21:10 | 53.36060 | -2.26837 | 254 ft | 0 kts | 313° |
| 2026-05-03 21:29 | 53.36047 | -2.26815 | 254 ft | 4 kts | 315° |
| 2026-05-03 21:30 | 53.36031 | -2.26789 | 254 ft | 4 kts | 309° |
| 2026-05-03 21:30 | 53.36025 | -2.26755 | 254 ft | 4 kts | 245° |
| 2026-05-03 21:30 | 53.36039 | -2.26722 | 254 ft | 4 kts | 228° |
| 2026-05-03 21:30 | 53.36056 | -2.26688 | 254 ft | 3 kts | 230° |
| 2026-05-03 21:31 | 53.36069 | -2.26660 | 254 ft | 4 kts | 242° |
| 2026-05-03 21:31 | 53.36080 | -2.26621 | 254 ft | 2 kts | 240° |
| 2026-05-03 21:31 | 53.36091 | -2.26589 | 254 ft | 4 kts | 237° |
| 2026-05-03 21:31 | 53.36094 | -2.26583 | 254 ft | 0 kts | 236° |
| 2026-05-03 21:35 | 53.36094 | -2.26584 | 254 ft | 0 kts | 236° |
| 2026-05-03 21:35 | 53.36085 | -2.26604 | 254 ft | 5 kts | 236° |
| 2026-05-03 21:35 | 53.36063 | -2.26667 | 254 ft | 7 kts | 236° |
| 2026-05-03 21:36 | 53.36032 | -2.26731 | 254 ft | 7 kts | 233° |
| 2026-05-03 21:36 | 53.36003 | -2.26795 | 254 ft | 7 kts | 233° |
| 2026-05-03 21:36 | 53.35963 | -2.26835 | 254 ft | 7 kts | 188° |
| 2026-05-03 21:36 | 53.35917 | -2.26829 | 255 ft | 7 kts | 190° |
| 2026-05-03 21:37 | 53.35882 | -2.26877 | 255 ft | 7 kts | 227° |
| 2026-05-03 21:37 | 53.35852 | -2.26938 | 255 ft | 7 kts | 236° |
| 2026-05-03 21:37 | 53.35827 | -2.27008 | 254 ft | 8 kts | 239° |
| 2026-05-03 21:37 | 53.35792 | -2.27098 | 254 ft | 10 kts | 231° |
| 2026-05-03 21:38 | 53.35746 | -2.27196 | 254 ft | 11 kts | 232° |
| 2026-05-03 21:38 | 53.35698 | -2.27292 | 254 ft | 11 kts | 230° |
| 2026-05-03 21:38 | 53.35648 | -2.27396 | 248 ft | 16 kts | 231° |
| 2026-05-03 21:38 | 53.35561 | -2.27576 | 242 ft | 22 kts | 231° |
| 2026-05-03 21:39 | 53.35475 | -2.27761 | 238 ft | 17 kts | 232° |
| 2026-05-03 21:39 | 53.35453 | -2.27908 | 238 ft | 13 kts | 249° |
| 2026-05-03 21:39 | 53.35390 | -2.28028 | 236 ft | 14 kts | 227° |
| 2026-05-03 21:39 | 53.35319 | -2.28143 | 234 ft | 15 kts | 223° |
| 2026-05-03 21:40 | 53.35243 | -2.28280 | 231 ft | 16 kts | 229° |
| 2026-05-03 21:40 | 53.35168 | -2.28433 | 228 ft | 19 kts | 230° |
| 2026-05-03 21:40 | 53.35085 | -2.28605 | 228 ft | 19 kts | 231° |
| 2026-05-03 21:40 | 53.34998 | -2.28769 | 226 ft | 20 kts | 226° |
| 2026-05-03 21:41 | 53.34919 | -2.28908 | 224 ft | 16 kts | 227° |
| 2026-05-03 21:41 | 53.34829 | -2.29043 | 219 ft | 14 kts | 212° |
| 2026-05-03 21:41 | 53.34736 | -2.29058 | 222 ft | 14 kts | 165° |
| 2026-05-03 21:41 | 53.34676 | -2.28985 | 222 ft | 8 kts | 118° |
| 2026-05-03 21:42 | 53.34692 | -2.28908 | 224 ft | 7 kts | 50° |
| 2026-05-03 21:42 | 53.34753 | -2.28785 | 223 ft | 41 kts | 51° |
| 2026-05-03 21:42 | 53.35117 | -2.28030 | 232 ft | 124 kts | 51° |
| 2026-05-03 21:42 | 53.35772 | -2.26650 | 594 ft | 165 kts | 52° |
| 2026-05-03 21:43 | 53.36454 | -2.25029 | 1510 ft | 182 kts | 56° |
| 2026-05-03 21:43 | 53.37277 | -2.23320 | 2372 ft | 195 kts | 49° |
| 2026-05-03 21:43 | 53.38248 | -2.21556 | 2758 ft | 216 kts | 40° |
| 2026-05-03 21:43 | 53.39705 | -2.20760 | 3155 ft | 234 kts | 359° |
| 2026-05-03 21:44 | 53.41245 | -2.21837 | 3560 ft | 255 kts | 320° |
| 2026-05-03 21:44 | 53.42170 | -2.24422 | 4087 ft | 266 kts | 291° |
| 2026-05-03 21:44 | 53.42824 | -2.27368 | 4586 ft | 272 kts | 294° |
| 2026-05-03 21:44 | 53.43586 | -2.30255 | 4981 ft | 273 kts | 296° |
| 2026-05-03 21:45 | 53.44407 | -2.33114 | 4998 ft | 270 kts | 297° |
| 2026-05-03 21:45 | 53.45244 | -2.35929 | 5007 ft | 268 kts | 298° |
| 2026-05-03 21:45 | 53.46092 | -2.38726 | 5020 ft | 270 kts | 298° |
| 2026-05-03 21:45 | 53.46872 | -2.41616 | 5018 ft | 277 kts | 285° |
| 2026-05-03 21:46 | 53.46902 | -2.44839 | 5024 ft | 276 kts | 262° |
| 2026-05-03 21:46 | 53.46560 | -2.47987 | 5012 ft | 273 kts | 259° |
| 2026-05-03 21:46 | 53.45885 | -2.50919 | 5011 ft | 270 kts | 239° |
| 2026-05-03 21:46 | 53.44853 | -2.53546 | 5173 ft | 267 kts | 235° |
| 2026-05-03 21:47 | 53.43792 | -2.56104 | 5572 ft | 270 kts | 235° |
| 2026-05-03 21:47 | 53.42703 | -2.58702 | 5977 ft | 276 kts | 235° |
| 2026-05-03 21:47 | 53.41563 | -2.61353 | 6366 ft | 283 kts | 235° |
| 2026-05-03 21:47 | 53.40410 | -2.63998 | 6730 ft | 280 kts | 234° |
| 2026-05-03 21:48 | 53.39282 | -2.66592 | 7089 ft | 278 kts | 235° |
| 2026-05-03 21:48 | 53.38446 | -2.69472 | 7467 ft | 273 kts | 260° |
| 2026-05-03 21:48 | 53.38492 | -2.72622 | 8001 ft | 275 kts | 284° |
| 2026-05-03 21:48 | 53.39041 | -2.75718 | 8551 ft | 281 kts | 288° |
| 2026-05-03 21:49 | 53.39680 | -2.78820 | 9069 ft | 281 kts | 289° |
| 2026-05-03 21:49 | 53.40342 | -2.81922 | 9592 ft | 283 kts | 289° |
| 2026-05-03 21:49 | 53.41017 | -2.85030 | 10102 ft | 284 kts | 289° |
| 2026-05-03 21:49 | 53.41703 | -2.88143 | 10586 ft | 285 kts | 290° |
| 2026-05-03 21:50 | 53.42390 | -2.91261 | 11085 ft | 286 kts | 289° |
| 2026-05-03 21:50 | 53.43085 | -2.94410 | 11581 ft | 291 kts | 289° |
| 2026-05-03 21:50 | 53.43799 | -2.97648 | 12128 ft | 301 kts | 290° |
| 2026-05-03 21:50 | 53.44537 | -3.01008 | 12662 ft | 312 kts | 290° |
| 2026-05-03 21:51 | 53.45298 | -3.04480 | 13213 ft | 322 kts | 290° |
| 2026-05-03 21:51 | 53.46078 | -3.08060 | 13758 ft | 332 kts | 290° |
| 2026-05-03 21:51 | 53.46879 | -3.11757 | 14249 ft | 341 kts | 290° |
| 2026-05-03 21:51 | 53.47416 | -3.14255 | 14581 ft | 347 kts | 290° |
| 2026-05-03 21:52 | 53.48242 | -3.18111 | 15081 ft | 355 kts | 289° |
| 2026-05-03 21:52 | 53.49361 | -3.23357 | 15756 ft | 364 kts | 289° |
| 2026-05-03 21:52 | 53.50216 | -3.27381 | 16264 ft | 366 kts | 289° |
| 2026-05-03 21:52 | 53.51071 | -3.31417 | 16785 ft | 367 kts | 289° |
| 2026-05-03 21:53 | 53.51926 | -3.35461 | 17298 ft | 368 kts | 289° |
| 2026-05-03 21:53 | 53.52783 | -3.39523 | 17840 ft | 369 kts | 289° |
| 2026-05-03 21:53 | 53.53362 | -3.42271 | 18208 ft | 370 kts | 289° |
| 2026-05-03 21:53 | 53.54210 | -3.46309 | 18684 ft | 374 kts | 289° |
| 2026-05-03 21:54 | 53.55084 | -3.50473 | 19184 ft | 379 kts | 289° |
| 2026-05-03 21:54 | 53.55965 | -3.54674 | 19678 ft | 383 kts | 289° |
| 2026-05-03 21:54 | 53.56853 | -3.58919 | 20184 ft | 387 kts | 289° |
| 2026-05-03 21:54 | 53.57753 | -3.63226 | 20697 ft | 390 kts | 289° |
| 2026-05-03 21:55 | 53.58649 | -3.67550 | 21202 ft | 393 kts | 289° |
| 2026-05-03 21:55 | 53.59551 | -3.71913 | 21728 ft | 395 kts | 289° |
| 2026-05-03 21:55 | 53.60455 | -3.76295 | 22263 ft | 397 kts | 289° |
| 2026-05-03 21:55 | 53.61364 | -3.80713 | 22809 ft | 399 kts | 289° |
| 2026-05-03 21:56 | 53.62277 | -3.85143 | 23363 ft | 401 kts | 289° |
| 2026-05-03 21:56 | 53.63192 | -3.89576 | 23862 ft | 402 kts | 289° |
| 2026-05-03 21:56 | 53.64112 | -3.94033 | 24333 ft | 403 kts | 289° |
| 2026-05-03 21:56 | 53.65036 | -3.98495 | 24814 ft | 403 kts | 289° |
| 2026-05-03 21:57 | 53.65961 | -4.02952 | 25310 ft | 404 kts | 289° |
| 2026-05-03 21:57 | 53.66892 | -4.07425 | 25811 ft | 404 kts | 289° |
| 2026-05-03 21:57 | 53.67825 | -4.11893 | 26313 ft | 403 kts | 289° |
| 2026-05-03 21:57 | 53.68750 | -4.16353 | 26823 ft | 403 kts | 289° |
| 2026-05-03 21:58 | 53.69645 | -4.20769 | 27337 ft | 402 kts | 289° |
| 2026-05-03 21:58 | 53.70536 | -4.25232 | 27871 ft | 401 kts | 290° |
| 2026-05-03 21:58 | 53.71412 | -4.29690 | 28410 ft | 399 kts | 289° |
| 2026-05-03 21:58 | 53.72283 | -4.34136 | 28963 ft | 397 kts | 289° |
| 2026-05-03 21:59 | 53.73148 | -4.38563 | 29523 ft | 395 kts | 289° |
| 2026-05-03 21:59 | 53.74002 | -4.42951 | 30085 ft | 393 kts | 289° |
| 2026-05-03 21:59 | 53.74844 | -4.47325 | 30564 ft | 390 kts | 289° |
| 2026-05-03 21:59 | 53.75543 | -4.51734 | 31032 ft | 388 kts | 277° |
| 2026-05-03 22:00 | 53.75472 | -4.56276 | 31524 ft | 386 kts | 261° |
| 2026-05-03 22:00 | 53.75009 | -4.60714 | 31978 ft | 384 kts | 261° |
| 2026-05-03 22:00 | 53.74150 | -4.69818 | 31996 ft | 400 kts | 263° |
| 2026-05-03 22:01 | 53.73425 | -4.79307 | 32003 ft | 415 kts | 264° |
| 2026-05-03 22:01 | 53.72714 | -4.89112 | 31994 ft | 424 kts | 264° |
| 2026-05-03 22:02 | 53.71976 | -4.99017 | 31983 ft | 426 kts | 264° |
| 2026-05-03 22:02 | 53.71223 | -5.08891 | 31986 ft | 426 kts | 264° |
| 2026-05-03 22:03 | 53.70459 | -5.18789 | 31980 ft | 424 kts | 264° |
| 2026-05-03 22:03 | 53.69691 | -5.28641 | 31985 ft | 422 kts | 264° |
| 2026-05-03 22:04 | 53.68919 | -5.38454 | 31993 ft | 422 kts | 264° |
| 2026-05-03 22:04 | 53.67753 | -5.48168 | 31983 ft | 426 kts | 248° |
| 2026-05-03 22:05 | 53.66353 | -5.52573 | 31999 ft | 428 kts | 236° |
| 2026-05-03 22:05 | 53.64437 | -5.56417 | 31997 ft | 430 kts | 226° |
| 2026-05-03 22:05 | 53.60198 | -5.63553 | 32004 ft | 431 kts | 225° |
| 2026-05-03 22:06 | 53.55920 | -5.70665 | 31988 ft | 432 kts | 225° |
| 2026-05-03 22:06 | 53.51681 | -5.77789 | 31991 ft | 430 kts | 225° |
| 2026-05-03 22:07 | 53.47497 | -5.84856 | 31992 ft | 428 kts | 225° |
| 2026-05-03 22:07 | 53.43310 | -5.91926 | 31988 ft | 426 kts | 226° |
| 2026-05-03 22:08 | 53.39136 | -5.98954 | 31995 ft | 425 kts | 225° |
| 2026-05-03 22:08 | 53.34953 | -6.05977 | 31999 ft | 425 kts | 225° |
| 2026-05-03 22:09 | 53.30765 | -6.12984 | 31603 ft | 423 kts | 225° |
| 2026-05-03 22:09 | 53.28716 | -6.16407 | 31113 ft | 422 kts | 225° |
| 2026-05-03 22:10 | 53.24598 | -6.23266 | 30379 ft | 414 kts | 225° |
| 2026-05-03 22:10 | 53.22567 | -6.26643 | 29951 ft | 412 kts | 225° |
| 2026-05-03 22:10 | 53.20539 | -6.30010 | 29437 ft | 411 kts | 225° |
| 2026-05-03 22:10 | 53.18518 | -6.33361 | 28935 ft | 409 kts | 225° |
| 2026-05-03 22:11 | 53.16497 | -6.36706 | 28431 ft | 409 kts | 225° |
| 2026-05-03 22:11 | 53.14479 | -6.40042 | 27946 ft | 407 kts | 225° |
| 2026-05-03 22:11 | 53.12472 | -6.43357 | 27465 ft | 406 kts | 225° |
| 2026-05-03 22:11 | 53.10467 | -6.46662 | 26990 ft | 405 kts | 225° |
| 2026-05-03 22:12 | 53.08470 | -6.49950 | 26522 ft | 404 kts | 225° |
| 2026-05-03 22:12 | 53.06474 | -6.53231 | 26069 ft | 402 kts | 224° |
| 2026-05-03 22:12 | 53.04487 | -6.56494 | 25618 ft | 401 kts | 224° |
| 2026-05-03 22:12 | 53.02504 | -6.59746 | 25164 ft | 400 kts | 224° |
| 2026-05-03 22:13 | 53.00528 | -6.62981 | 24727 ft | 398 kts | 224° |
| 2026-05-03 22:13 | 52.98559 | -6.66201 | 24295 ft | 397 kts | 224° |
| 2026-05-03 22:13 | 52.96593 | -6.69410 | 23864 ft | 396 kts | 224° |
| 2026-05-03 22:13 | 52.94633 | -6.72607 | 23423 ft | 394 kts | 224° |
| 2026-05-03 22:14 | 52.92676 | -6.75793 | 22924 ft | 393 kts | 224° |
| 2026-05-03 22:14 | 52.90730 | -6.78957 | 22429 ft | 392 kts | 224° |
| 2026-05-03 22:14 | 52.88790 | -6.82109 | 21946 ft | 390 kts | 224° |
| 2026-05-03 22:14 | 52.86855 | -6.85247 | 21471 ft | 389 kts | 224° |
| 2026-05-03 22:15 | 52.84930 | -6.88367 | 21008 ft | 387 kts | 224° |
| 2026-05-03 22:15 | 52.83031 | -6.91438 | 20548 ft | 385 kts | 224° |
| 2026-05-03 22:15 | 52.81091 | -6.94573 | 20090 ft | 384 kts | 224° |
| 2026-05-03 22:15 | 52.79211 | -6.97608 | 19655 ft | 383 kts | 224° |
| 2026-05-03 22:16 | 52.77310 | -7.00671 | 19216 ft | 381 kts | 224° |
| 2026-05-03 22:16 | 52.75413 | -7.03723 | 18810 ft | 379 kts | 224° |
| 2026-05-03 22:16 | 52.73533 | -7.06746 | 18442 ft | 376 kts | 224° |
| 2026-05-03 22:16 | 52.71666 | -7.09742 | 18050 ft | 373 kts | 224° |
| 2026-05-03 22:17 | 52.69815 | -7.12710 | 17650 ft | 370 kts | 224° |
| 2026-05-03 22:17 | 52.67978 | -7.15653 | 17246 ft | 367 kts | 224° |
| 2026-05-03 22:17 | 52.66150 | -7.18576 | 16850 ft | 364 kts | 224° |
| 2026-05-03 22:17 | 52.64336 | -7.21474 | 16457 ft | 362 kts | 224° |
| 2026-05-03 22:18 | 52.62534 | -7.24349 | 16066 ft | 359 kts | 224° |
| 2026-05-03 22:18 | 52.60752 | -7.27189 | 15744 ft | 355 kts | 224° |
| 2026-05-03 22:18 | 52.58990 | -7.29993 | 15426 ft | 351 kts | 224° |
| 2026-05-03 22:18 | 52.57241 | -7.32774 | 15129 ft | 347 kts | 224° |
| 2026-05-03 22:19 | 52.55511 | -7.35520 | 14834 ft | 343 kts | 224° |
| 2026-05-03 22:19 | 52.53804 | -7.38228 | 14537 ft | 340 kts | 223° |
| 2026-05-03 22:19 | 52.52114 | -7.40906 | 14252 ft | 336 kts | 223° |
| 2026-05-03 22:19 | 52.50437 | -7.43559 | 13962 ft | 333 kts | 223° |
| 2026-05-03 22:20 | 52.48774 | -7.46188 | 13659 ft | 331 kts | 223° |
| 2026-05-03 22:20 | 52.47124 | -7.48794 | 13320 ft | 328 kts | 223° |
| 2026-05-03 22:20 | 52.45486 | -7.51377 | 13008 ft | 325 kts | 223° |
| 2026-05-03 22:20 | 52.43864 | -7.53933 | 12695 ft | 323 kts | 223° |
| 2026-05-03 22:21 | 52.42246 | -7.56479 | 12379 ft | 321 kts | 223° |
| 2026-05-03 22:21 | 52.40643 | -7.59001 | 12065 ft | 318 kts | 224° |
| 2026-05-03 22:21 | 52.39048 | -7.61506 | 11760 ft | 316 kts | 224° |
| 2026-05-03 22:21 | 52.37468 | -7.63985 | 11455 ft | 314 kts | 224° |
| 2026-05-03 22:22 | 52.35897 | -7.66447 | 11150 ft | 312 kts | 224° |
| 2026-05-03 22:22 | 52.34333 | -7.68897 | 10854 ft | 310 kts | 224° |
| 2026-05-03 22:22 | 52.32782 | -7.71324 | 10597 ft | 307 kts | 224° |
| 2026-05-03 22:22 | 52.31249 | -7.73719 | 10352 ft | 303 kts | 224° |
| 2026-05-03 22:23 | 52.29732 | -7.76087 | 10106 ft | 300 kts | 224° |
| 2026-05-03 22:23 | 52.28246 | -7.78405 | 9861 ft | 297 kts | 224° |
| 2026-05-03 22:23 | 52.26758 | -7.80724 | 9593 ft | 294 kts | 224° |
| 2026-05-03 22:23 | 52.25281 | -7.83023 | 9338 ft | 293 kts | 224° |
| 2026-05-03 22:24 | 52.23811 | -7.85310 | 9066 ft | 291 kts | 224° |
| 2026-05-03 22:24 | 52.22348 | -7.87584 | 8807 ft | 290 kts | 224° |
| 2026-05-03 22:24 | 52.20894 | -7.89844 | 8528 ft | 288 kts | 224° |
| 2026-05-03 22:24 | 52.19443 | -7.92097 | 8267 ft | 289 kts | 224° |
| 2026-05-03 22:25 | 52.17978 | -7.94367 | 8058 ft | 291 kts | 224° |
| 2026-05-03 22:25 | 52.16505 | -7.96647 | 7995 ft | 295 kts | 224° |
| 2026-05-03 22:25 | 52.15013 | -7.98952 | 7984 ft | 295 kts | 224° |
| 2026-05-03 22:25 | 52.13452 | -8.01103 | 7966 ft | 292 kts | 209° |
| 2026-05-03 22:26 | 52.11554 | -8.02205 | 7997 ft | 291 kts | 193° |
| 2026-05-03 22:26 | 52.09580 | -8.03023 | 7810 ft | 293 kts | 193° |
| 2026-05-03 22:26 | 52.07629 | -8.03810 | 7715 ft | 286 kts | 193° |
| 2026-05-03 22:26 | 52.05716 | -8.04583 | 7610 ft | 280 kts | 193° |
| 2026-05-03 22:27 | 52.03845 | -8.05344 | 7531 ft | 276 kts | 193° |
| 2026-05-03 22:27 | 52.02007 | -8.06096 | 7453 ft | 276 kts | 193° |
| 2026-05-03 22:27 | 52.00148 | -8.06860 | 7381 ft | 275 kts | 192° |
| 2026-05-03 22:27 | 51.98298 | -8.07623 | 7292 ft | 275 kts | 193° |
| 2026-05-03 22:28 | 51.96444 | -8.08388 | 7211 ft | 274 kts | 193° |
| 2026-05-03 22:28 | 51.94599 | -8.09150 | 7123 ft | 273 kts | 193° |
| 2026-05-03 22:28 | 51.92755 | -8.09912 | 7043 ft | 273 kts | 193° |
| 2026-05-03 22:28 | 51.90922 | -8.10670 | 6967 ft | 272 kts | 193° |
| 2026-05-03 22:29 | 51.89089 | -8.11427 | 6878 ft | 275 kts | 193° |
| 2026-05-03 22:29 | 51.87220 | -8.12198 | 6819 ft | 278 kts | 193° |
| 2026-05-03 22:29 | 51.85344 | -8.12972 | 6722 ft | 278 kts | 193° |
| 2026-05-03 22:29 | 51.83477 | -8.13742 | 6621 ft | 278 kts | 193° |
| 2026-05-03 22:30 | 51.81612 | -8.14511 | 6554 ft | 276 kts | 193° |
| 2026-05-03 22:30 | 51.79747 | -8.15281 | 6465 ft | 276 kts | 193° |
| 2026-05-03 22:30 | 51.77888 | -8.16046 | 6386 ft | 275 kts | 193° |
| 2026-05-03 22:30 | 51.76034 | -8.16809 | 6310 ft | 275 kts | 191° |
| 2026-05-03 22:31 | 51.74183 | -8.17569 | 6213 ft | 274 kts | 192° |
| 2026-05-03 22:31 | 51.72336 | -8.18325 | 6133 ft | 274 kts | 192° |
| 2026-05-03 22:31 | 51.70476 | -8.19089 | 6023 ft | 277 kts | 193° |
| 2026-05-03 22:31 | 51.68780 | -8.20502 | 5961 ft | 277 kts | 223° |
| 2026-05-03 22:32 | 51.67689 | -8.23047 | 5653 ft | 278 kts | 248° |
| 2026-05-03 22:32 | 51.67029 | -8.25946 | 5276 ft | 274 kts | 252° |
| 2026-05-03 22:32 | 51.66410 | -8.28791 | 4899 ft | 271 kts | 252° |
| 2026-05-03 22:32 | 51.65782 | -8.31634 | 4510 ft | 268 kts | 251° |
| 2026-05-03 22:33 | 51.65166 | -8.34445 | 4115 ft | 265 kts | 256° |
| 2026-05-03 22:33 | 51.65137 | -8.37318 | 3687 ft | 256 kts | 293° |
| 2026-05-03 22:33 | 51.66165 | -8.39487 | 3309 ft | 242 kts | 332° |
| 2026-05-03 22:33 | 51.67722 | -8.40257 | 3034 ft | 229 kts | 352° |
| 2026-05-03 22:34 | 51.69229 | -8.40832 | 2989 ft | 217 kts | 347° |
| 2026-05-03 22:34 | 51.70615 | -8.41536 | 2984 ft | 201 kts | 344° |
| 2026-05-03 22:34 | 51.71898 | -8.42193 | 2956 ft | 186 kts | 346° |
| 2026-05-03 22:34 | 51.73115 | -8.42828 | 2972 ft | 184 kts | 339° |
| 2026-05-03 22:35 | 51.74153 | -8.44051 | 3004 ft | 185 kts | 336° |
| 2026-05-03 22:35 | 51.75362 | -8.44371 | 2965 ft | 178 kts | 0° |
| 2026-05-03 22:35 | 51.76660 | -8.44955 | 2452 ft | 198 kts | 342° |
| 2026-05-03 22:35 | 51.77905 | -8.45665 | 2213 ft | 184 kts | 346° |
| 2026-05-03 22:36 | 51.79128 | -8.46318 | 1792 ft | 178 kts | 343° |
| 2026-05-03 22:36 | 51.80255 | -8.46915 | 1510 ft | 164 kts | 345° |
| 2026-05-03 22:36 | 51.81299 | -8.47510 | 1174 ft | 153 kts | 341° |
| 2026-05-03 22:36 | 51.82290 | -8.48036 | 792 ft | 148 kts | 342° |
| 2026-05-03 22:37 | 51.83237 | -8.48588 | 513 ft | 139 kts | 340° |
| 2026-05-03 22:37 | 51.84101 | -8.49111 | 476 ft | 119 kts | 337° |
| 2026-05-03 22:37 | 51.84765 | -8.49489 | 486 ft | 83 kts | 340° |
| 2026-05-03 22:37 | 51.85040 | -8.49690 | 482 ft | 4 kts | 319° |
| 2026-05-03 22:38 | 51.85052 | -8.49680 | 481 ft | 2 kts | 69° |
| 2026-05-03 22:38 | 51.85043 | -8.49662 | 485 ft | 2 kts | 139° |
| 2026-05-03 22:38 | 51.85029 | -8.49645 | 485 ft | 4 kts | 144° |
| 2026-05-03 22:38 | 51.85002 | -8.49601 | 482 ft | 7 kts | 102° |
| 2026-05-03 22:39 | 51.85039 | -8.49548 | 487 ft | 8 kts | 22° |
| 2026-05-03 22:39 | 51.85087 | -8.49519 | 492 ft | 7 kts | 21° |
| 2026-05-03 22:39 | 51.85116 | -8.49494 | 494 ft | 7 kts | 32° |
| 2026-05-03 22:39 | 51.85141 | -8.49433 | 500 ft | 7 kts | 90° |
| 2026-05-03 22:40 | 51.85115 | -8.49372 | 502 ft | 7 kts | 154° |
| 2026-05-03 22:40 | 51.85056 | -8.49333 | 502 ft | 13 kts | 159° |
| 2026-05-03 22:40 | 51.84996 | -8.49297 | 502 ft | 19 kts | 162° |
| 2026-05-03 22:40 | 51.84907 | -8.49258 | 502 ft | 20 kts | 165° |
| 2026-05-03 22:41 | 51.84808 | -8.49212 | 502 ft | 7 kts | 166° |
| 2026-05-03 22:41 | 51.84778 | -8.49160 | 502 ft | 7 kts | 92° |
| 2026-05-03 22:41 | 51.84787 | -8.49087 | 502 ft | 7 kts | 72° |
| 2026-05-03 22:41 | 51.84800 | -8.49031 | 502 ft | 1 kts | 67° |
| 2026-05-03 22:42 | 51.84802 | -8.49024 | 502 ft | 0 kts | 68° |